createdAt,value
2022-09-20T00:00:34.547Z,0.00
2022-09-20T00:01:34.561Z,0.00
2022-09-20T00:02:34.514Z,0.00
2022-09-20T00:03:34.457Z,0.00
2022-09-20T00:04:34.535Z,0.00
2022-09-20T00:05:35.172Z,0.00
2022-09-20T00:06:34.593Z,0.00
2022-09-20T00:07:34.434Z,0.00
2022-09-20T00:08:34.397Z,0.00
2022-09-20T00:09:34.421Z,0.00
2022-09-20T00:10:34.407Z,0.00
2022-09-20T00:11:34.404Z,0.00
2022-09-20T00:12:34.414Z,0.00
2022-09-20T00:13:35.087Z,0.00
2022-09-20T00:14:34.384Z,0.00
2022-09-20T00:15:34.343Z,0.00
2022-09-20T00:16:34.470Z,0.00
2022-09-20T00:17:34.326Z,0.00
2022-09-20T00:18:34.313Z,0.00
2022-09-20T00:19:34.345Z,0.00
2022-09-20T00:20:34.319Z,0.00
2022-09-20T00:21:34.318Z,0.00
2022-09-20T00:22:34.260Z,0.00
2022-09-20T00:23:34.257Z,0.00
2022-09-20T00:24:34.302Z,0.00
2022-09-20T00:25:34.233Z,0.00
2022-09-20T00:26:34.265Z,0.00
2022-09-20T00:27:34.281Z,0.00
2022-09-20T00:28:34.302Z,0.00
2022-09-20T00:29:34.202Z,0.00
2022-09-20T00:30:34.189Z,0.00
2022-09-20T00:31:34.228Z,0.00
2022-09-20T00:32:34.202Z,0.00
2022-09-20T00:33:34.210Z,0.00
2022-09-20T00:34:34.191Z,0.00
2022-09-20T00:35:34.197Z,0.00
2022-09-20T00:36:34.327Z,0.00
2022-09-20T00:37:34.211Z,0.00
2022-09-20T00:38:34.145Z,0.00
2022-09-20T00:39:34.146Z,0.00
2022-09-20T00:40:34.158Z,0.00
2022-09-20T00:41:34.087Z,0.00
2022-09-20T00:42:34.074Z,0.00
2022-09-20T00:43:34.076Z,0.00
2022-09-20T00:44:34.057Z,0.00
2022-09-20T00:45:34.169Z,0.00
2022-09-20T00:46:34.035Z,0.00
2022-09-20T00:47:34.054Z,0.00
2022-09-20T00:48:33.976Z,1.00
2022-09-20T00:49:34.013Z,0.00
2022-09-20T00:50:34.027Z,0.00
2022-09-20T00:51:34.021Z,0.00
2022-09-20T00:52:34.001Z,0.00
2022-09-20T00:53:33.963Z,0.00
2022-09-20T00:54:33.957Z,0.00
2022-09-20T00:55:33.994Z,0.00
2022-09-20T00:56:33.962Z,0.00
2022-09-20T00:57:34.034Z,0.00
2022-09-20T00:58:33.985Z,0.00
2022-09-20T00:59:33.945Z,0.00
2022-09-20T01:00:34.732Z,0.00
2022-09-20T01:01:34.054Z,0.00
2022-09-20T01:02:33.984Z,0.00
2022-09-20T01:03:33.944Z,0.00
2022-09-20T01:04:33.939Z,0.00
2022-09-20T01:05:34.756Z,0.00
2022-09-20T01:06:33.906Z,0.00
2022-09-20T01:07:33.901Z,0.00
2022-09-20T01:08:33.896Z,0.00
2022-09-20T01:09:33.853Z,0.00
2022-09-20T01:10:33.783Z,0.00
2022-09-20T01:11:33.831Z,0.00
2022-09-20T01:12:33.793Z,0.00
2022-09-20T01:13:33.820Z,0.00
2022-09-20T01:14:33.808Z,0.00
2022-09-20T01:15:33.910Z,0.00
2022-09-20T01:16:34.816Z,0.00
2022-09-20T01:17:33.721Z,0.00
2022-09-20T01:18:33.733Z,0.00
2022-09-20T01:19:33.714Z,0.00
2022-09-20T01:20:33.713Z,0.00
2022-09-20T01:21:33.698Z,0.00
2022-09-20T01:22:33.660Z,0.00
2022-09-20T01:23:33.671Z,0.00
2022-09-20T01:24:33.716Z,0.00
2022-09-20T01:25:33.774Z,0.00
2022-09-20T01:26:33.657Z,0.00
2022-09-20T01:27:33.643Z,0.00
2022-09-20T01:28:33.599Z,0.00
2022-09-20T01:29:33.588Z,0.00
2022-09-20T01:30:33.596Z,0.00
2022-09-20T01:31:33.665Z,0.00
2022-09-20T01:32:33.609Z,0.00
2022-09-20T01:33:33.570Z,0.00
2022-09-20T01:34:33.559Z,0.00
2022-09-20T01:35:33.529Z,0.00
2022-09-20T01:36:33.545Z,0.00
2022-09-20T01:37:33.633Z,0.00
2022-09-20T01:38:33.531Z,0.00
2022-09-20T01:39:33.510Z,0.00
2022-09-20T01:40:33.566Z,0.00
2022-09-20T01:41:33.473Z,0.00
2022-09-20T01:42:33.527Z,0.00
2022-09-20T01:43:33.455Z,0.00
2022-09-20T01:44:33.494Z,0.00
2022-09-20T01:45:33.483Z,0.00
2022-09-20T01:46:33.460Z,0.00
2022-09-20T01:47:33.435Z,0.00
2022-09-20T01:48:33.427Z,0.00
2022-09-20T01:49:33.383Z,0.00
2022-09-20T01:50:33.425Z,0.00
2022-09-20T01:51:33.366Z,0.00
2022-09-20T01:52:33.403Z,0.00
2022-09-20T01:53:33.342Z,0.00
2022-09-20T01:54:33.369Z,0.00
2022-09-20T01:55:33.356Z,0.00
2022-09-20T01:56:33.328Z,0.00
2022-09-20T01:57:33.344Z,0.00
2022-09-20T01:58:33.344Z,0.00
2022-09-20T01:59:33.302Z,0.00
2022-09-20T02:00:33.365Z,0.00
2022-09-20T02:01:33.436Z,0.00
2022-09-20T02:02:33.339Z,0.00
2022-09-20T02:03:33.273Z,0.00
2022-09-20T02:04:33.254Z,0.00
2022-09-20T02:05:33.233Z,0.00
2022-09-20T02:06:33.273Z,0.00
2022-09-20T02:07:33.242Z,0.00
2022-09-20T02:08:33.176Z,1.00
2022-09-20T02:09:33.296Z,0.00
2022-09-20T02:10:33.411Z,0.00
2022-09-20T02:11:33.212Z,0.00
2022-09-20T02:12:33.870Z,0.00
2022-09-20T02:13:33.174Z,0.00
2022-09-20T02:14:33.177Z,0.00
2022-09-20T02:15:33.135Z,0.00
2022-09-20T02:16:33.229Z,0.00
2022-09-20T02:17:33.097Z,1.00
2022-09-20T02:18:33.115Z,0.00
2022-09-20T02:19:33.082Z,0.00
2022-09-20T02:20:33.127Z,0.00
2022-09-20T02:21:33.124Z,0.00
2022-09-20T02:22:33.078Z,0.00
2022-09-20T02:23:33.093Z,0.00
2022-09-20T02:24:33.053Z,0.00
2022-09-20T02:25:33.055Z,0.00
2022-09-20T02:26:33.105Z,0.00
2022-09-20T02:27:33.063Z,0.00
2022-09-20T02:28:33.702Z,0.00
2022-09-20T02:29:33.023Z,0.00
2022-09-20T02:30:32.976Z,0.00
2022-09-20T02:31:33.004Z,0.00
2022-09-20T02:32:32.993Z,0.00
2022-09-20T02:33:33.012Z,0.00
2022-09-20T02:34:32.962Z,0.00
2022-09-20T02:35:32.922Z,0.00
2022-09-20T02:36:32.928Z,0.00
2022-09-20T02:37:32.943Z,0.00
2022-09-20T02:38:32.918Z,0.00
2022-09-20T02:39:32.923Z,0.00
2022-09-20T02:40:32.989Z,0.00
2022-09-20T02:41:32.866Z,0.00
2022-09-20T02:42:32.894Z,0.00
2022-09-20T02:43:32.864Z,0.00
2022-09-20T02:44:32.876Z,0.00
2022-09-20T02:45:32.877Z,0.00
2022-09-20T02:46:32.834Z,0.00
2022-09-20T02:47:32.857Z,0.00
2022-09-20T02:48:33.661Z,0.00
2022-09-20T02:49:32.779Z,0.00
2022-09-20T02:50:32.872Z,0.00
2022-09-20T02:51:32.768Z,0.00
2022-09-20T02:52:32.790Z,0.00
2022-09-20T02:53:32.766Z,0.00
2022-09-20T02:54:32.759Z,0.00
2022-09-20T02:55:32.727Z,0.00
2022-09-20T02:56:32.725Z,0.00
2022-09-20T02:57:32.706Z,0.00
2022-09-20T02:58:32.809Z,0.00
2022-09-20T02:59:32.769Z,0.00
2022-09-20T03:00:32.770Z,0.00
2022-09-20T03:01:32.788Z,0.00
2022-09-20T03:02:32.812Z,0.00
2022-09-20T03:03:32.627Z,0.00
2022-09-20T03:04:32.651Z,0.00
2022-09-20T03:05:32.661Z,0.00
2022-09-20T03:06:32.629Z,0.00
2022-09-20T03:07:32.625Z,0.00
2022-09-20T03:08:32.630Z,0.00
2022-09-20T03:09:32.616Z,0.00
2022-09-20T03:10:32.624Z,0.00
2022-09-20T03:11:33.201Z,0.00
2022-09-20T03:12:32.705Z,0.00
2022-09-20T03:13:32.560Z,0.00
2022-09-20T03:14:32.549Z,0.00
2022-09-20T03:15:32.560Z,0.00
2022-09-20T03:16:32.526Z,0.00
2022-09-20T03:17:32.558Z,0.00
2022-09-20T03:18:32.504Z,0.00
2022-09-20T03:19:32.556Z,0.00
2022-09-20T03:20:32.480Z,0.00
2022-09-20T03:21:32.449Z,0.00
2022-09-20T03:22:32.435Z,0.00
2022-09-20T03:23:32.469Z,0.00
2022-09-20T03:24:32.456Z,0.00
2022-09-20T03:25:32.462Z,0.00
2022-09-20T03:26:32.420Z,0.00
2022-09-20T03:27:32.412Z,0.00
2022-09-20T03:28:32.379Z,0.00
2022-09-20T03:29:32.413Z,0.00
2022-09-20T03:30:32.395Z,0.00
2022-09-20T03:31:32.411Z,0.00
2022-09-20T03:32:32.350Z,0.00
2022-09-20T03:33:32.351Z,0.00
2022-09-20T03:34:32.363Z,0.00
2022-09-20T03:35:32.374Z,0.00
2022-09-20T03:36:32.733Z,0.00
2022-09-20T03:37:32.304Z,0.00
2022-09-20T03:38:32.283Z,0.00
2022-09-20T03:39:32.333Z,0.00
2022-09-20T03:40:32.326Z,0.00
2022-09-20T03:41:32.351Z,0.00
2022-09-20T03:42:32.254Z,0.00
2022-09-20T03:43:32.263Z,0.00
2022-09-20T03:44:32.269Z,0.00
2022-09-20T03:45:32.281Z,0.00
2022-09-20T03:46:32.216Z,0.00
2022-09-20T03:47:32.307Z,0.00
2022-09-20T03:48:32.181Z,0.00
2022-09-20T03:49:32.257Z,0.00
2022-09-20T03:50:32.226Z,0.00
2022-09-20T03:51:34.308Z,0.00
2022-09-20T03:52:32.683Z,0.00
2022-09-20T03:53:32.138Z,0.00
2022-09-20T03:54:32.191Z,0.00
2022-09-20T03:55:32.149Z,0.00
2022-09-20T03:56:32.153Z,0.00
2022-09-20T03:57:32.143Z,0.00
2022-09-20T03:58:32.170Z,0.00
2022-09-20T03:59:32.095Z,0.00
2022-09-20T04:00:32.284Z,0.00
2022-09-20T04:01:32.161Z,0.00
2022-09-20T04:02:32.099Z,0.00
2022-09-20T04:03:32.096Z,0.00
2022-09-20T04:04:32.155Z,0.00
2022-09-20T04:05:32.054Z,0.00
2022-09-20T04:06:31.989Z,0.00
2022-09-20T04:07:32.023Z,0.00
2022-09-20T04:08:31.972Z,0.00
2022-09-20T04:09:31.977Z,0.00
2022-09-20T04:10:31.945Z,0.00
2022-09-20T04:11:31.965Z,0.00
2022-09-20T04:12:32.165Z,0.00
2022-09-20T04:13:31.938Z,0.00
2022-09-20T04:14:31.930Z,0.00
2022-09-20T04:15:32.726Z,0.00
2022-09-20T04:16:32.050Z,0.00
2022-09-20T04:17:31.905Z,0.00
2022-09-20T04:18:31.832Z,1.00
2022-09-20T04:19:33.193Z,0.00
2022-09-20T04:20:31.897Z,0.00
2022-09-20T04:21:31.895Z,0.00
2022-09-20T04:22:31.854Z,0.00
2022-09-20T04:23:31.865Z,0.00
2022-09-20T04:24:31.837Z,0.00
2022-09-20T04:25:31.788Z,0.00
2022-09-20T04:26:31.829Z,0.00
2022-09-20T04:27:31.821Z,0.00
2022-09-20T04:28:31.786Z,0.00
2022-09-20T04:29:31.798Z,0.00
2022-09-20T04:30:32.780Z,0.00
2022-09-20T04:31:31.818Z,1.00
2022-09-20T04:32:32.226Z,0.00
2022-09-20T04:33:31.755Z,0.00
2022-09-20T04:34:31.675Z,1.00
2022-09-20T04:35:31.736Z,0.00
2022-09-20T04:36:31.683Z,1.00
2022-09-20T04:37:31.737Z,0.00
2022-09-20T04:38:31.674Z,0.00
2022-09-20T04:39:31.778Z,0.00
2022-09-20T04:40:31.815Z,0.00
2022-09-20T04:41:32.583Z,0.00
2022-09-20T04:42:31.641Z,0.00
2022-09-20T04:43:31.611Z,0.00
2022-09-20T04:44:31.653Z,1.00
2022-09-20T04:45:31.838Z,1.00
2022-09-20T04:46:31.575Z,1.00
2022-09-20T04:47:31.532Z,1.00
2022-09-20T04:48:31.603Z,0.00
2022-09-20T04:49:31.584Z,0.00
2022-09-20T04:50:31.608Z,0.00
2022-09-20T04:51:31.544Z,0.00
2022-09-20T04:52:31.521Z,0.00
2022-09-20T04:53:31.535Z,0.00
2022-09-20T04:54:31.547Z,0.00
2022-09-20T04:55:31.499Z,0.00
2022-09-20T04:56:31.524Z,2.00
2022-09-20T04:57:31.430Z,1.00
2022-09-20T04:58:31.505Z,1.00
2022-09-20T04:59:31.415Z,1.00
2022-09-20T05:00:31.431Z,2.00
2022-09-20T05:01:32.482Z,1.00
2022-09-20T05:02:31.419Z,2.00
2022-09-20T05:03:31.630Z,2.00
2022-09-20T05:04:31.405Z,2.00
2022-09-20T05:05:31.379Z,4.00
2022-09-20T05:06:31.357Z,6.00
2022-09-20T05:07:31.324Z,5.00
2022-09-20T05:08:31.354Z,6.00
2022-09-20T05:09:31.302Z,5.00
2022-09-20T05:10:32.274Z,6.00
2022-09-20T05:11:31.361Z,6.00
2022-09-20T05:12:31.392Z,10.00
2022-09-20T05:13:31.319Z,12.00
2022-09-20T05:15:31.231Z,12.00
2022-09-20T05:16:31.295Z,11.00
2022-09-20T05:17:31.285Z,11.00
2022-09-20T05:18:31.229Z,12.00
2022-09-20T05:19:31.231Z,13.00
2022-09-20T05:20:31.215Z,14.00
2022-09-20T05:21:31.224Z,15.00
2022-09-20T05:22:31.221Z,16.00
2022-09-20T05:23:31.225Z,17.00
2022-09-20T05:24:31.160Z,18.00
2022-09-20T05:25:31.265Z,27.00
2022-09-20T05:26:31.141Z,37.00
2022-09-20T05:27:31.147Z,32.00
2022-09-20T05:28:31.118Z,36.00
2022-09-20T05:29:31.126Z,39.00
2022-09-20T05:30:31.181Z,37.00
2022-09-20T05:31:31.111Z,40.00
2022-09-20T05:32:31.125Z,41.00
2022-09-20T05:33:31.089Z,34.00
2022-09-20T05:34:31.129Z,21.00
2022-09-20T05:35:31.035Z,46.00
2022-09-20T05:36:34.366Z,35.00
2022-09-20T05:37:31.045Z,33.00
2022-09-20T05:38:31.034Z,27.00
2022-09-20T05:39:31.057Z,30.00
2022-09-20T05:40:31.093Z,72.00
2022-09-20T05:41:30.981Z,52.00
2022-09-20T05:42:30.981Z,68.00
2022-09-20T05:43:30.978Z,66.00
2022-09-20T05:44:31.079Z,66.00
2022-09-20T05:45:31.012Z,61.00
2022-09-20T05:46:30.930Z,70.00
2022-09-20T05:47:30.947Z,68.00
2022-09-20T05:48:30.951Z,72.00
2022-09-20T05:49:30.902Z,77.00
2022-09-20T05:50:30.882Z,77.00
2022-09-20T05:51:31.793Z,86.00
2022-09-20T05:52:30.862Z,90.00
2022-09-20T05:53:30.882Z,92.00
2022-09-20T05:54:30.869Z,93.00
2022-09-20T05:55:30.847Z,94.00
2022-09-20T05:56:30.817Z,99.00
2022-09-20T05:57:30.833Z,102.00
2022-09-20T05:58:30.880Z,104.00
2022-09-20T05:59:31.089Z,109.00
2022-09-20T06:00:30.780Z,109.00
2022-09-20T06:01:30.875Z,115.00
2022-09-20T06:02:30.821Z,130.00
2022-09-20T06:03:30.755Z,110.00
2022-09-20T06:04:30.819Z,110.00
2022-09-20T06:05:30.731Z,58.00
2022-09-20T06:06:32.752Z,114.00
2022-09-20T06:07:30.744Z,95.00
2022-09-20T06:08:30.729Z,71.00
2022-09-20T06:09:30.749Z,184.00
2022-09-20T06:10:30.696Z,121.00
2022-09-20T06:11:30.701Z,74.00
2022-09-20T06:12:30.730Z,170.00
2022-09-20T06:13:30.679Z,212.00
2022-09-20T06:14:32.206Z,149.00
2022-09-20T06:15:30.637Z,131.00
2022-09-20T06:16:30.680Z,107.00
2022-09-20T06:17:30.743Z,149.00
2022-09-20T06:18:30.700Z,317.00
2022-09-20T06:19:30.616Z,135.00
2022-09-20T06:20:30.595Z,165.00
2022-09-20T06:21:30.615Z,210.00
2022-09-20T06:22:30.587Z,195.00
2022-09-20T06:23:30.695Z,183.00
2022-09-20T06:24:30.614Z,318.00
2022-09-20T06:25:30.581Z,277.00
2022-09-20T06:26:30.518Z,306.00
2022-09-20T06:27:30.556Z,208.00
2022-09-20T06:28:30.504Z,196.00
2022-09-20T06:29:30.499Z,185.00
2022-09-20T06:30:31.149Z,231.00
2022-09-20T06:31:30.647Z,181.00
2022-09-20T06:32:30.452Z,189.00
2022-09-20T06:33:30.485Z,217.00
2022-09-20T06:34:30.446Z,281.00
2022-09-20T06:35:30.483Z,341.00
2022-09-20T06:36:30.410Z,466.00
2022-09-20T06:37:30.419Z,1891.00
2022-09-20T06:38:30.431Z,523.00
2022-09-20T06:39:30.568Z,258.00
2022-09-20T06:40:30.427Z,296.00
2022-09-20T06:41:30.407Z,249.00
2022-09-20T06:42:30.380Z,572.00
2022-09-20T06:43:30.408Z,433.00
2022-09-20T06:44:30.346Z,176.00
2022-09-20T06:45:30.497Z,293.00
2022-09-20T06:46:30.355Z,228.00
2022-09-20T06:47:30.341Z,265.00
2022-09-20T06:48:30.321Z,578.00
2022-09-20T06:49:31.211Z,920.00
2022-09-20T06:50:30.338Z,258.00
2022-09-20T06:51:30.270Z,510.00
2022-09-20T06:52:30.350Z,1409.00
2022-09-20T06:53:30.266Z,7224.00
2022-09-20T06:54:30.260Z,2781.00
2022-09-20T06:55:30.236Z,1814.00
2022-09-20T06:56:30.233Z,5012.00
2022-09-20T06:57:30.292Z,10281.00
2022-09-20T06:58:30.336Z,7970.00
2022-09-20T06:59:30.212Z,8520.00
2022-09-20T07:00:30.201Z,11396.00
2022-09-20T07:01:30.879Z,9640.00
2022-09-20T07:02:30.259Z,11416.00
2022-09-20T07:03:30.165Z,12209.00
2022-09-20T07:04:30.150Z,6659.00
2022-09-20T07:05:30.162Z,2178.00
2022-09-20T07:06:30.160Z,794.00
2022-09-20T07:07:30.170Z,988.00
2022-09-20T07:08:30.180Z,924.00
2022-09-20T07:09:30.084Z,1066.00
2022-09-20T07:10:30.104Z,846.00
2022-09-20T07:11:30.186Z,1051.00
2022-09-20T07:12:30.189Z,824.00
2022-09-20T07:13:30.051Z,1027.00
2022-09-20T07:14:30.159Z,2102.00
2022-09-20T07:15:30.059Z,921.00
2022-09-20T07:16:30.116Z,559.00
2022-09-20T07:17:30.018Z,634.00
2022-09-20T07:18:30.042Z,406.00
2022-09-20T07:19:30.051Z,1570.00
2022-09-20T07:20:30.064Z,435.00
2022-09-20T07:21:30.101Z,1066.00
2022-09-20T07:22:30.076Z,956.00
2022-09-20T07:23:29.952Z,981.00
2022-09-20T07:24:30.797Z,888.00
2022-09-20T07:25:30.005Z,840.00
2022-09-20T07:26:30.649Z,823.00
2022-09-20T07:27:29.953Z,736.00
2022-09-20T07:28:29.984Z,655.00
2022-09-20T07:29:29.906Z,689.00
2022-09-20T07:30:29.905Z,615.00
2022-09-20T07:31:29.938Z,836.00
2022-09-20T07:32:29.876Z,679.00
2022-09-20T07:33:30.862Z,1645.00
2022-09-20T07:34:30.031Z,291.00
2022-09-20T07:35:29.951Z,1441.00
2022-09-20T07:36:29.849Z,306.00
2022-09-20T07:37:31.877Z,622.00
2022-09-20T07:38:29.847Z,697.00
2022-09-20T07:39:29.824Z,709.00
2022-09-20T07:40:29.858Z,673.00
2022-09-20T07:41:30.294Z,743.00
2022-09-20T07:42:29.927Z,1290.00
2022-09-20T07:43:29.912Z,408.00
2022-09-20T07:44:29.966Z,781.00
2022-09-20T07:45:30.748Z,742.00
2022-09-20T07:46:30.747Z,1795.00
2022-09-20T07:47:29.850Z,867.00
2022-09-20T07:48:29.885Z,286.00
2022-09-20T07:49:29.730Z,441.00
2022-09-20T07:50:30.310Z,545.00
2022-09-20T07:51:29.768Z,251.00
2022-09-20T07:52:29.692Z,400.00
2022-09-20T07:53:29.788Z,386.00
2022-09-20T07:54:29.653Z,280.00
2022-09-20T07:55:29.799Z,379.00
2022-09-20T07:56:29.797Z,341.00
2022-09-20T07:57:29.709Z,304.00
2022-09-20T07:58:29.675Z,343.00
2022-09-20T07:59:30.709Z,300.00
2022-09-20T08:00:29.616Z,352.00
2022-09-20T08:01:29.660Z,223.00
2022-09-20T08:02:29.640Z,298.00
2022-09-20T08:03:30.117Z,1286.00
2022-09-20T08:04:29.547Z,408.00
2022-09-20T08:05:29.622Z,340.00
2022-09-20T08:06:29.573Z,310.00
2022-09-20T08:07:29.635Z,519.00
2022-09-20T08:08:29.584Z,2052.00
2022-09-20T08:09:29.484Z,333.00
2022-09-20T08:10:29.513Z,415.00
2022-09-20T08:11:29.536Z,525.00
2022-09-20T08:14:29.461Z,359.00
2022-09-20T08:15:30.432Z,1953.00
2022-09-20T08:16:29.523Z,366.00
2022-09-20T08:17:29.480Z,429.00
2022-09-20T08:18:29.457Z,683.00
2022-09-20T08:19:29.398Z,1735.00
2022-09-20T08:20:29.442Z,919.00
2022-09-20T08:21:29.544Z,1327.00
2022-09-20T08:22:29.472Z,568.00
2022-09-20T08:23:29.347Z,338.00
2022-09-20T08:24:29.383Z,265.00
2022-09-20T08:25:29.390Z,1522.00
2022-09-20T08:26:29.399Z,220.00
2022-09-20T08:27:29.831Z,355.00
2022-09-20T08:28:29.316Z,538.00
2022-09-20T08:29:29.334Z,1073.00
2022-09-20T08:30:29.326Z,490.00
2022-09-20T08:31:30.314Z,550.00
2022-09-20T08:32:29.386Z,626.00
2022-09-20T08:33:29.307Z,550.00
2022-09-20T08:34:29.264Z,580.00
2022-09-20T08:35:29.230Z,591.00
2022-09-20T08:36:35.299Z,640.00
2022-09-20T08:37:29.349Z,1270.00
2022-09-20T08:40:29.260Z,750.00
2022-09-20T08:41:29.211Z,682.00
2022-09-20T08:42:33.415Z,788.00
2022-09-20T08:43:29.256Z,701.00
2022-09-20T08:44:29.556Z,749.00
2022-09-20T08:45:36.211Z,672.00
2022-09-20T08:46:29.147Z,2061.00
2022-09-20T08:47:29.154Z,931.00
2022-09-20T08:48:30.178Z,396.00
2022-09-20T08:49:29.102Z,343.00
2022-09-20T08:50:30.115Z,366.00
2022-09-20T08:51:29.195Z,340.00
2022-09-20T08:52:29.047Z,330.00
2022-09-20T08:53:29.123Z,321.00
2022-09-20T08:54:32.145Z,291.00
2022-09-20T08:55:29.072Z,253.00
2022-09-20T08:56:29.024Z,267.00
2022-09-20T08:57:29.003Z,325.00
2022-09-20T08:58:28.993Z,326.00
2022-09-20T08:59:28.997Z,312.00
2022-09-20T09:00:29.049Z,270.00
2022-09-20T09:01:29.038Z,446.00
2022-09-20T09:02:28.977Z,2125.00
2022-09-20T09:03:28.981Z,406.00
2022-09-20T09:04:28.947Z,475.00
2022-09-20T09:05:28.961Z,360.00
2022-09-20T09:06:29.038Z,392.00
2022-09-20T09:07:28.958Z,1553.00
2022-09-20T09:08:28.950Z,442.00
2022-09-20T09:09:28.885Z,437.00
2022-09-20T09:10:28.887Z,488.00
2022-09-20T09:11:28.873Z,693.00
2022-09-20T09:12:28.933Z,1418.00
2022-09-20T09:13:28.970Z,567.00
2022-09-20T09:14:29.255Z,1630.00
2022-09-20T09:15:28.898Z,547.00
2022-09-20T09:16:35.662Z,485.00
2022-09-20T09:17:28.858Z,391.00
2022-09-20T09:18:31.796Z,1103.00
2022-09-20T09:19:36.038Z,611.00
2022-09-20T09:20:28.819Z,526.00
2022-09-20T09:21:28.784Z,398.00
2022-09-20T09:22:28.797Z,432.00
2022-09-20T09:23:29.652Z,348.00
2022-09-20T09:24:28.856Z,451.00
2022-09-20T09:25:28.926Z,293.00
2022-09-20T09:26:28.730Z,348.00
2022-09-20T09:27:28.704Z,343.00
2022-09-20T09:28:28.780Z,314.00
2022-09-20T09:29:31.756Z,358.00
2022-09-20T09:30:28.720Z,423.00
2022-09-20T09:31:28.719Z,389.00
2022-09-20T09:32:28.696Z,438.00
2022-09-20T09:33:28.635Z,439.00
2022-09-20T09:34:28.630Z,422.00
2022-09-20T09:35:28.681Z,402.00
2022-09-20T09:36:28.615Z,422.00
2022-09-20T09:37:29.160Z,391.00
2022-09-20T09:38:28.605Z,390.00
2022-09-20T09:39:28.601Z,390.00
2022-09-20T09:40:28.665Z,350.00
2022-09-20T09:41:28.688Z,343.00
2022-09-20T09:42:28.604Z,337.00
2022-09-20T09:43:28.532Z,337.00
2022-09-20T09:44:28.555Z,304.00
2022-09-20T09:45:28.751Z,329.00
2022-09-20T09:46:28.596Z,296.00
2022-09-20T09:47:28.576Z,338.00
2022-09-20T09:48:28.510Z,342.00
2022-09-20T09:49:28.521Z,348.00
2022-09-20T09:50:28.521Z,356.00
2022-09-20T09:51:28.491Z,437.00
2022-09-20T09:52:28.524Z,388.00
2022-09-20T09:53:29.812Z,427.00
2022-09-20T09:54:28.496Z,381.00
2022-09-20T09:55:28.459Z,298.00
2022-09-20T09:56:28.469Z,318.00
2022-09-20T09:57:28.444Z,340.00
2022-09-20T09:58:28.449Z,406.00
2022-09-20T09:59:28.399Z,377.00
2022-09-20T10:00:28.473Z,415.00
2022-09-20T10:01:33.033Z,442.00
2022-09-20T10:02:28.381Z,557.00
2022-09-20T10:03:28.356Z,543.00
2022-09-20T10:04:28.624Z,412.00
2022-09-20T10:05:28.320Z,520.00
2022-09-20T10:06:28.326Z,1300.00
2022-09-20T10:07:28.492Z,1190.00
2022-09-20T10:08:28.291Z,538.00
2022-09-20T10:09:28.296Z,435.00
2022-09-20T10:10:28.345Z,383.00
2022-09-20T10:11:28.259Z,290.00
2022-09-20T10:12:28.294Z,418.00
2022-09-20T10:13:28.234Z,436.00
2022-09-20T10:14:28.234Z,342.00
2022-09-20T10:15:28.243Z,443.00
2022-09-20T10:16:28.292Z,399.00
2022-09-20T10:17:28.188Z,478.00
2022-09-20T10:18:28.200Z,460.00
2022-09-20T10:19:28.236Z,732.00
2022-09-20T10:20:28.215Z,612.00
2022-09-20T10:21:28.163Z,1317.00
2022-09-20T10:22:28.173Z,1321.00
2022-09-20T10:23:58.640Z,1340.00
2022-09-20T10:24:28.292Z,568.00
2022-09-20T10:25:28.146Z,641.00
2022-09-20T10:26:28.193Z,456.00
2022-09-20T10:27:28.126Z,425.00
2022-09-20T10:28:28.110Z,881.00
2022-09-20T10:29:28.124Z,396.00
2022-09-20T10:30:28.073Z,409.00
2022-09-20T10:31:28.195Z,699.00
2022-09-20T10:32:28.120Z,619.00
2022-09-20T10:33:28.045Z,386.00
2022-09-20T10:34:28.042Z,273.00
2022-09-20T10:35:28.032Z,254.00
2022-09-20T10:36:28.133Z,270.00
2022-09-20T10:37:28.014Z,257.00
2022-09-20T10:38:27.983Z,254.00
2022-09-20T10:39:27.981Z,205.00
2022-09-20T10:40:28.043Z,186.00
2022-09-20T10:41:27.961Z,259.00
2022-09-20T10:42:27.966Z,316.00
2022-09-20T10:43:27.962Z,313.00
2022-09-20T10:44:27.925Z,293.00
2022-09-20T10:45:53.684Z,288.00
2022-09-20T10:46:32.180Z,269.00
2022-09-20T10:47:27.998Z,290.00
2022-09-20T10:48:27.917Z,289.00
2022-09-20T10:49:27.946Z,271.00
2022-09-20T10:50:27.888Z,303.00
2022-09-20T10:51:27.985Z,271.00
2022-09-20T10:52:27.885Z,270.00
2022-09-20T10:53:27.876Z,242.00
2022-09-20T10:54:27.893Z,278.00
2022-09-20T10:55:27.835Z,240.00
2022-09-20T10:56:27.870Z,252.00
2022-09-20T10:57:27.939Z,333.00
2022-09-20T10:58:27.810Z,323.00
2022-09-20T10:59:27.824Z,413.00
2022-09-20T11:00:27.825Z,539.00
2022-09-20T11:01:27.789Z,442.00
2022-09-20T11:02:27.843Z,351.00
2022-09-20T11:03:28.289Z,294.00
2022-09-20T11:04:27.747Z,244.00
2022-09-20T11:05:27.757Z,199.00
2022-09-20T11:06:27.706Z,154.00
2022-09-20T11:07:27.737Z,133.00
2022-09-20T11:08:27.726Z,121.00
2022-09-20T11:09:27.723Z,115.00
2022-09-20T11:10:27.700Z,131.00
2022-09-20T11:11:27.657Z,173.00
2022-09-20T11:12:27.657Z,193.00
2022-09-20T11:13:27.667Z,191.00
2022-09-20T11:14:27.635Z,233.00
2022-09-20T11:15:27.632Z,288.00
2022-09-20T11:16:27.686Z,291.00
2022-09-20T11:17:27.650Z,323.00
2022-09-20T11:18:27.607Z,349.00
2022-09-20T11:19:27.589Z,327.00
2022-09-20T11:20:27.619Z,337.00
2022-09-20T11:21:27.587Z,363.00
2022-09-20T11:22:27.556Z,399.00
2022-09-20T11:23:27.585Z,423.00
2022-09-20T11:24:27.629Z,583.00
2022-09-20T11:25:29.712Z,1674.00
2022-09-20T11:26:27.516Z,1423.00
2022-09-20T11:27:27.678Z,485.00
2022-09-20T11:28:27.480Z,1306.00
2022-09-20T11:29:27.526Z,560.00
2022-09-20T11:30:27.468Z,955.00
2022-09-20T11:31:27.522Z,773.00
2022-09-20T11:32:27.454Z,773.00
2022-09-20T11:33:28.256Z,712.00
2022-09-20T11:34:27.783Z,1143.00
2022-09-20T11:35:27.456Z,682.00
2022-09-20T11:36:27.433Z,745.00
2022-09-20T11:37:27.419Z,1610.00
2022-09-20T11:38:27.403Z,576.00
2022-09-20T11:39:27.404Z,648.00
2022-09-20T11:40:27.487Z,1551.00
2022-09-20T11:41:27.373Z,558.00
2022-09-20T11:42:27.372Z,774.00
2022-09-20T11:43:27.363Z,838.00
2022-09-20T11:44:27.336Z,830.00
2022-09-20T11:45:28.535Z,1269.00
2022-09-20T11:46:27.323Z,769.00
2022-09-20T11:47:52.571Z,901.00
2022-09-20T11:48:27.310Z,938.00
2022-09-20T11:49:27.287Z,947.00
2022-09-20T11:50:27.371Z,2728.00
2022-09-20T11:51:27.276Z,481.00
2022-09-20T11:52:27.274Z,779.00
2022-09-20T11:53:27.315Z,638.00
2022-09-20T11:54:27.276Z,388.00
2022-09-20T11:55:27.243Z,435.00
2022-09-20T11:56:27.257Z,1257.00
2022-09-20T11:57:27.250Z,482.00
2022-09-20T11:58:27.205Z,490.00
2022-09-20T11:59:27.181Z,473.00
2022-09-20T12:00:27.175Z,417.00
2022-09-20T12:01:28.443Z,385.00
2022-09-20T12:02:27.291Z,367.00
2022-09-20T12:03:27.227Z,311.00
2022-09-20T12:04:35.086Z,331.00
2022-09-20T12:05:27.127Z,348.00
2022-09-20T12:06:27.132Z,496.00
2022-09-20T12:07:27.123Z,785.00
2022-09-20T12:08:27.129Z,852.00
2022-09-20T12:09:27.101Z,905.00
2022-09-20T12:10:27.075Z,903.00
2022-09-20T12:11:27.314Z,902.00
2022-09-20T12:12:27.081Z,2799.00
2022-09-20T12:13:27.073Z,659.00
2022-09-20T12:14:27.045Z,455.00
2022-09-20T12:15:27.078Z,404.00
2022-09-20T12:16:27.102Z,362.00
2022-09-20T12:17:27.092Z,366.00
2022-09-20T12:18:27.009Z,351.00
2022-09-20T12:19:27.010Z,336.00
2022-09-20T12:20:27.024Z,373.00
2022-09-20T12:21:26.988Z,352.00
2022-09-20T12:22:27.756Z,356.00
2022-09-20T12:23:26.939Z,319.00
2022-09-20T12:24:26.942Z,317.00
2022-09-20T12:25:26.934Z,317.00
2022-09-20T12:26:26.945Z,346.00
2022-09-20T12:27:26.967Z,320.00
2022-09-20T12:28:26.912Z,346.00
2022-09-20T12:29:26.891Z,372.00
2022-09-20T12:30:26.877Z,357.00
2022-09-20T12:31:26.970Z,352.00
2022-09-20T12:32:26.855Z,347.00
2022-09-20T12:33:26.892Z,338.00
2022-09-20T12:34:26.851Z,315.00
2022-09-20T12:35:26.844Z,305.00
2022-09-20T12:36:26.811Z,303.00
2022-09-20T12:37:26.816Z,265.00
2022-09-20T12:38:27.637Z,366.00
2022-09-20T12:39:29.968Z,272.00
2022-09-20T12:40:26.904Z,298.00
2022-09-20T12:41:28.830Z,333.00
2022-09-20T12:42:26.751Z,369.00
2022-09-20T12:43:26.811Z,442.00
2022-09-20T12:44:26.782Z,871.00
2022-09-20T12:45:26.759Z,408.00
2022-09-20T12:46:26.784Z,413.00
2022-09-20T12:47:26.695Z,1273.00
2022-09-20T12:48:26.770Z,472.00
2022-09-20T12:49:26.699Z,439.00
2022-09-20T12:50:26.671Z,383.00
2022-09-20T12:51:26.677Z,337.00
2022-09-20T12:52:26.684Z,272.00